sensor_id;sensor_type;location;lat;lon;timestamp;P1;durP1;ratioP1;P2;durP2;ratioP2
3050;SDS011;1535;51.098;6.414;2023-02-15T00:01:30;48.03;;;32.40;;
3050;SDS011;1535;51.098;6.414;2023-02-15T00:04:00;38.13;;;30.60;;
3050;SDS011;1535;51.098;6.414;2023-02-15T00:06:27;43.37;;;31.60;;
3050;SDS011;1535;51.098;6.414;2023-02-15T00:08:54;55.97;;;32.43;;
3050;SDS011;1535;51.098;6.414;2023-02-15T00:11:22;42.80;;;34.30;;
3050;SDS011;1535;51.098;6.414;2023-02-15T00:14:03;44.23;;;32.23;;
3050;SDS011;1535;51.098;6.414;2023-02-15T00:16:30;45.10;;;32.20;;
3050;SDS011;1535;51.098;6.414;2023-02-15T00:18:57;48.80;;;33.57;;
3050;SDS011;1535;51.098;6.414;2023-02-15T00:21:28;41.47;;;32.00;;
3050;SDS011;1535;51.098;6.414;2023-02-15T00:23:55;50.07;;;32.70;;
3050;SDS011;1535;51.098;6.414;2023-02-15T00:26:23;45.90;;;33.23;;
3050;SDS011;1535;51.098;6.414;2023-02-15T00:28:50;43.00;;;31.43;;
3050;SDS011;1535;51.098;6.414;2023-02-15T00:31:18;46.13;;;32.23;;
3050;SDS011;1535;51.098;6.414;2023-02-15T00:33:46;40.07;;;32.60;;
3050;SDS011;1535;51.098;6.414;2023-02-15T00:36:13;42.40;;;32.30;;
3050;SDS011;1535;51.098;6.414;2023-02-15T00:38:41;47.83;;;34.30;;
3050;SDS011;1535;51.098;6.414;2023-02-15T00:41:08;51.87;;;35.67;;
3050;SDS011;1535;51.098;6.414;2023-02-15T00:43:35;44.30;;;33.33;;
3050;SDS011;1535;51.098;6.414;2023-02-15T00:46:03;48.03;;;32.37;;
3050;SDS011;1535;51.098;6.414;2023-02-15T00:48:31;42.87;;;33.53;;
3050;SDS011;1535;51.098;6.414;2023-02-15T00:50:58;45.87;;;33.93;;
3050;SDS011;1535;51.098;6.414;2023-02-15T00:53:27;46.63;;;32.60;;
3050;SDS011;1535;51.098;6.414;2023-02-15T00:55:56;49.20;;;34.23;;
3050;SDS011;1535;51.098;6.414;2023-02-15T00:58:23;45.37;;;34.03;;
3050;SDS011;1535;51.098;6.414;2023-02-15T01:00:51;49.47;;;35.57;;
3050;SDS011;1535;51.098;6.414;2023-02-15T01:03:19;47.93;;;34.50;;
3050;SDS011;1535;51.098;6.414;2023-02-15T01:05:47;44.60;;;34.33;;
3050;SDS011;1535;51.098;6.414;2023-02-15T01:08:15;46.87;;;34.87;;
3050;SDS011;1535;51.098;6.414;2023-02-15T01:10:43;49.30;;;35.67;;
3050;SDS011;1535;51.098;6.414;2023-02-15T01:13:13;49.00;;;36.57;;
3050;SDS011;1535;51.098;6.414;2023-02-15T01:15:41;48.90;;;36.10;;
3050;SDS011;1535;51.098;6.414;2023-02-15T01:18:09;48.40;;;34.00;;
3050;SDS011;1535;51.098;6.414;2023-02-15T01:20:37;47.80;;;33.90;;
3050;SDS011;1535;51.098;6.414;2023-02-15T01:23:06;45.47;;;33.23;;
3050;SDS011;1535;51.098;6.414;2023-02-15T01:25:34;46.23;;;34.13;;
3050;SDS011;1535;51.098;6.414;2023-02-15T01:28:02;46.00;;;35.17;;
3050;SDS011;1535;51.098;6.414;2023-02-15T01:30:31;47.93;;;35.00;;
3050;SDS011;1535;51.098;6.414;2023-02-15T01:32:58;55.57;;;34.20;;
3050;SDS011;1535;51.098;6.414;2023-02-15T01:35:25;58.40;;;35.83;;
3050;SDS011;1535;51.098;6.414;2023-02-15T01:37:52;51.30;;;35.73;;
3050;SDS011;1535;51.098;6.414;2023-02-15T01:40:20;43.93;;;34.67;;
3050;SDS011;1535;51.098;6.414;2023-02-15T01:42:49;48.03;;;34.70;;
3050;SDS011;1535;51.098;6.414;2023-02-15T01:45:18;51.80;;;36.27;;
3050;SDS011;1535;51.098;6.414;2023-02-15T01:47:51;51.90;;;35.90;;
3050;SDS011;1535;51.098;6.414;2023-02-15T01:50:22;54.90;;;36.20;;
3050;SDS011;1535;51.098;6.414;2023-02-15T01:52:55;46.13;;;34.53;;
3050;SDS011;1535;51.098;6.414;2023-02-15T01:55:25;49.40;;;35.80;;
3050;SDS011;1535;51.098;6.414;2023-02-15T01:57:55;55.83;;;36.53;;
3050;SDS011;1535;51.098;6.414;2023-02-15T02:00:22;49.03;;;36.30;;
3050;SDS011;1535;51.098;6.414;2023-02-15T02:02:52;53.33;;;36.13;;
3050;SDS011;1535;51.098;6.414;2023-02-15T02:05:22;50.67;;;35.83;;
3050;SDS011;1535;51.098;6.414;2023-02-15T02:07:50;48.77;;;36.20;;
3050;SDS011;1535;51.098;6.414;2023-02-15T02:10:21;42.03;;;34.60;;
3050;SDS011;1535;51.098;6.414;2023-02-15T02:12:49;50.83;;;35.13;;
3050;SDS011;1535;51.098;6.414;2023-02-15T02:15:20;49.37;;;35.90;;
3050;SDS011;1535;51.098;6.414;2023-02-15T02:17:57;48.17;;;34.93;;
3050;SDS011;1535;51.098;6.414;2023-02-15T02:23:45;53.87;;;38.20;;
3050;SDS011;1535;51.098;6.414;2023-02-15T02:26:42;51.10;;;36.97;;
3050;SDS011;1535;51.098;6.414;2023-02-15T02:29:33;47.50;;;35.27;;
3050;SDS011;1535;51.098;6.414;2023-02-15T02:35:37;53.97;;;37.30;;
3050;SDS011;1535;51.098;6.414;2023-02-15T02:38:11;53.30;;;36.47;;
3050;SDS011;1535;51.098;6.414;2023-02-15T02:40:46;51.80;;;36.30;;
3050;SDS011;1535;51.098;6.414;2023-02-15T02:43:20;53.73;;;34.70;;
3050;SDS011;1535;51.098;6.414;2023-02-15T02:45:52;44.03;;;35.00;;
3050;SDS011;1535;51.098;6.414;2023-02-15T02:48:25;50.47;;;35.70;;
3050;SDS011;1535;51.098;6.414;2023-02-15T02:50:56;52.80;;;36.90;;
3050;SDS011;1535;51.098;6.414;2023-02-15T02:53:23;58.60;;;38.07;;
3050;SDS011;1535;51.098;6.414;2023-02-15T02:55:51;51.97;;;37.13;;
3050;SDS011;1535;51.098;6.414;2023-02-15T02:58:22;55.37;;;38.30;;
3050;SDS011;1535;51.098;6.414;2023-02-15T03:00:52;67.93;;;39.43;;
3050;SDS011;1535;51.098;6.414;2023-02-15T03:03:22;56.27;;;38.83;;
3050;SDS011;1535;51.098;6.414;2023-02-15T03:05:56;54.23;;;37.20;;
3050;SDS011;1535;51.098;6.414;2023-02-15T03:08:26;58.83;;;38.00;;
3050;SDS011;1535;51.098;6.414;2023-02-15T03:11:02;52.27;;;37.30;;
3050;SDS011;1535;51.098;6.414;2023-02-15T03:13:30;50.50;;;36.43;;
3050;SDS011;1535;51.098;6.414;2023-02-15T03:15:58;53.13;;;37.90;;
3050;SDS011;1535;51.098;6.414;2023-02-15T03:18:46;63.43;;;37.53;;
3050;SDS011;1535;51.098;6.414;2023-02-15T03:21:17;43.27;;;33.77;;
3050;SDS011;1535;51.098;6.414;2023-02-15T03:23:48;55.13;;;37.90;;
3050;SDS011;1535;51.098;6.414;2023-02-15T03:26:18;57.93;;;38.63;;
3050;SDS011;1535;51.098;6.414;2023-02-15T03:28:47;62.73;;;39.20;;
3050;SDS011;1535;51.098;6.414;2023-02-15T03:31:19;52.77;;;36.67;;
3050;SDS011;1535;51.098;6.414;2023-02-15T03:33:51;53.47;;;37.77;;
3050;SDS011;1535;51.098;6.414;2023-02-15T03:36:21;45.57;;;35.00;;
3050;SDS011;1535;51.098;6.414;2023-02-15T03:38:56;52.80;;;37.57;;
3050;SDS011;1535;51.098;6.414;2023-02-15T03:41:29;60.30;;;39.07;;
3050;SDS011;1535;51.098;6.414;2023-02-15T03:44:00;54.10;;;38.90;;
3050;SDS011;1535;51.098;6.414;2023-02-15T03:46:31;51.80;;;35.73;;
3050;SDS011;1535;51.098;6.414;2023-02-15T03:49:03;43.50;;;34.90;;
3050;SDS011;1535;51.098;6.414;2023-02-15T03:51:35;52.70;;;37.80;;
3050;SDS011;1535;51.098;6.414;2023-02-15T03:54:06;52.90;;;37.90;;
3050;SDS011;1535;51.098;6.414;2023-02-15T03:56:36;63.07;;;35.70;;
3050;SDS011;1535;51.098;6.414;2023-02-15T03:59:04;53.43;;;36.47;;
3050;SDS011;1535;51.098;6.414;2023-02-15T04:01:55;69.37;;;38.47;;
3050;SDS011;1535;51.098;6.414;2023-02-15T04:04:35;50.70;;;39.40;;
3050;SDS011;1535;51.098;6.414;2023-02-15T04:07:04;55.43;;;37.50;;
3050;SDS011;1535;51.098;6.414;2023-02-15T04:09:32;54.33;;;36.40;;
3050;SDS011;1535;51.098;6.414;2023-02-15T04:12:16;53.97;;;36.90;;
3050;SDS011;1535;51.098;6.414;2023-02-15T04:14:43;58.03;;;36.97;;
3050;SDS011;1535;51.098;6.414;2023-02-15T04:17:28;57.17;;;36.43;;
3050;SDS011;1535;51.098;6.414;2023-02-15T04:19:56;57.90;;;37.50;;
3050;SDS011;1535;51.098;6.414;2023-02-15T04:22:40;59.67;;;38.20;;
3050;SDS011;1535;51.098;6.414;2023-02-15T04:25:25;54.50;;;37.70;;
3050;SDS011;1535;51.098;6.414;2023-02-15T04:27:52;52.83;;;37.73;;
3050;SDS011;1535;51.098;6.414;2023-02-15T04:30:20;65.87;;;37.27;;
3050;SDS011;1535;51.098;6.414;2023-02-15T04:32:49;62.60;;;38.17;;
3050;SDS011;1535;51.098;6.414;2023-02-15T04:35:17;51.40;;;36.97;;
3050;SDS011;1535;51.098;6.414;2023-02-15T04:37:44;52.13;;;39.77;;
3050;SDS011;1535;51.098;6.414;2023-02-15T04:40:12;51.93;;;37.80;;
3050;SDS011;1535;51.098;6.414;2023-02-15T04:42:40;58.80;;;36.40;;
3050;SDS011;1535;51.098;6.414;2023-02-15T04:45:07;66.37;;;37.33;;
3050;SDS011;1535;51.098;6.414;2023-02-15T04:47:34;54.13;;;37.60;;
3050;SDS011;1535;51.098;6.414;2023-02-15T04:50:01;52.97;;;39.40;;
3050;SDS011;1535;51.098;6.414;2023-02-15T04:52:30;56.80;;;37.93;;
3050;SDS011;1535;51.098;6.414;2023-02-15T04:54:57;56.07;;;37.63;;
3050;SDS011;1535;51.098;6.414;2023-02-15T04:57:23;58.40;;;38.93;;
3050;SDS011;1535;51.098;6.414;2023-02-15T04:59:50;57.67;;;38.60;;
3050;SDS011;1535;51.098;6.414;2023-02-15T05:02:17;51.90;;;41.17;;
3050;SDS011;1535;51.098;6.414;2023-02-15T05:04:44;63.00;;;41.97;;
3050;SDS011;1535;51.098;6.414;2023-02-15T05:07:10;61.23;;;41.33;;
3050;SDS011;1535;51.098;6.414;2023-02-15T05:09:38;54.40;;;39.53;;
3050;SDS011;1535;51.098;6.414;2023-02-15T05:12:05;65.67;;;41.40;;
3050;SDS011;1535;51.098;6.414;2023-02-15T05:14:32;56.57;;;40.17;;
3050;SDS011;1535;51.098;6.414;2023-02-15T05:16:59;55.57;;;39.87;;
3050;SDS011;1535;51.098;6.414;2023-02-15T05:19:28;56.93;;;39.13;;
3050;SDS011;1535;51.098;6.414;2023-02-15T05:21:55;59.00;;;41.00;;
3050;SDS011;1535;51.098;6.414;2023-02-15T05:24:22;53.07;;;42.03;;
3050;SDS011;1535;51.098;6.414;2023-02-15T05:27:08;58.03;;;42.80;;
3050;SDS011;1535;51.098;6.414;2023-02-15T05:29:54;59.00;;;41.60;;
3050;SDS011;1535;51.098;6.414;2023-02-15T05:32:21;61.90;;;41.27;;
3050;SDS011;1535;51.098;6.414;2023-02-15T05:34:48;54.50;;;40.97;;
3050;SDS011;1535;51.098;6.414;2023-02-15T05:37:16;63.43;;;41.70;;
3050;SDS011;1535;51.098;6.414;2023-02-15T05:39:42;58.80;;;42.47;;
3050;SDS011;1535;51.098;6.414;2023-02-15T05:42:10;50.43;;;39.20;;
3050;SDS011;1535;51.098;6.414;2023-02-15T05:44:37;54.83;;;38.43;;
3050;SDS011;1535;51.098;6.414;2023-02-15T05:47:05;58.40;;;41.80;;
3050;SDS011;1535;51.098;6.414;2023-02-15T05:49:33;59.57;;;40.10;;
3050;SDS011;1535;51.098;6.414;2023-02-15T05:52:00;55.50;;;41.13;;
3050;SDS011;1535;51.098;6.414;2023-02-15T05:54:28;59.30;;;40.20;;
3050;SDS011;1535;51.098;6.414;2023-02-15T05:56:55;53.27;;;40.03;;
3050;SDS011;1535;51.098;6.414;2023-02-15T05:59:24;59.80;;;39.73;;
3050;SDS011;1535;51.098;6.414;2023-02-15T06:01:50;65.73;;;40.47;;
3050;SDS011;1535;51.098;6.414;2023-02-15T06:04:18;59.30;;;42.10;;
3050;SDS011;1535;51.098;6.414;2023-02-15T06:06:45;57.60;;;39.10;;
3050;SDS011;1535;51.098;6.414;2023-02-15T06:09:12;55.40;;;39.93;;
3050;SDS011;1535;51.098;6.414;2023-02-15T06:11:39;58.23;;;38.60;;
3050;SDS011;1535;51.098;6.414;2023-02-15T06:14:06;55.90;;;41.27;;
3050;SDS011;1535;51.098;6.414;2023-02-15T06:16:34;53.20;;;39.73;;
3050;SDS011;1535;51.098;6.414;2023-02-15T06:19:01;53.10;;;39.13;;
3050;SDS011;1535;51.098;6.414;2023-02-15T06:21:28;59.60;;;40.63;;
3050;SDS011;1535;51.098;6.414;2023-02-15T06:23:55;47.20;;;37.33;;
3050;SDS011;1535;51.098;6.414;2023-02-15T06:26:22;60.53;;;41.30;;
3050;SDS011;1535;51.098;6.414;2023-02-15T06:28:49;59.70;;;40.40;;
3050;SDS011;1535;51.098;6.414;2023-02-15T06:31:16;51.07;;;39.60;;
3050;SDS011;1535;51.098;6.414;2023-02-15T06:33:44;55.30;;;41.90;;
3050;SDS011;1535;51.098;6.414;2023-02-15T06:36:11;58.13;;;41.67;;
3050;SDS011;1535;51.098;6.414;2023-02-15T06:38:38;71.03;;;41.87;;
3050;SDS011;1535;51.098;6.414;2023-02-15T06:41:05;57.00;;;40.97;;
3050;SDS011;1535;51.098;6.414;2023-02-15T06:43:31;62.40;;;42.57;;
3050;SDS011;1535;51.098;6.414;2023-02-15T06:45:59;60.63;;;41.10;;
3050;SDS011;1535;51.098;6.414;2023-02-15T06:48:26;52.93;;;39.00;;
3050;SDS011;1535;51.098;6.414;2023-02-15T06:50:54;63.57;;;40.50;;
3050;SDS011;1535;51.098;6.414;2023-02-15T06:53:21;55.50;;;39.00;;
3050;SDS011;1535;51.098;6.414;2023-02-15T06:55:48;60.50;;;41.90;;
3050;SDS011;1535;51.098;6.414;2023-02-15T06:58:14;52.00;;;39.70;;
3050;SDS011;1535;51.098;6.414;2023-02-15T07:00:41;63.27;;;41.50;;
3050;SDS011;1535;51.098;6.414;2023-02-15T07:03:08;51.47;;;37.83;;
3050;SDS011;1535;51.098;6.414;2023-02-15T07:05:35;56.63;;;40.90;;
3050;SDS011;1535;51.098;6.414;2023-02-15T07:08:03;58.47;;;41.40;;
3050;SDS011;1535;51.098;6.414;2023-02-15T07:10:30;51.17;;;38.40;;
3050;SDS011;1535;51.098;6.414;2023-02-15T07:12:57;61.73;;;40.77;;
3050;SDS011;1535;51.098;6.414;2023-02-15T07:15:23;63.27;;;40.87;;
3050;SDS011;1535;51.098;6.414;2023-02-15T07:17:51;60.57;;;40.30;;
3050;SDS011;1535;51.098;6.414;2023-02-15T07:20:19;57.40;;;40.50;;
3050;SDS011;1535;51.098;6.414;2023-02-15T07:22:47;61.07;;;41.50;;
3050;SDS011;1535;51.098;6.414;2023-02-15T07:25:16;53.90;;;39.40;;
3050;SDS011;1535;51.098;6.414;2023-02-15T07:27:43;57.63;;;41.13;;
3050;SDS011;1535;51.098;6.414;2023-02-15T07:30:11;57.80;;;39.23;;
3050;SDS011;1535;51.098;6.414;2023-02-15T07:32:40;58.93;;;40.50;;
3050;SDS011;1535;51.098;6.414;2023-02-15T07:35:20;60.50;;;39.90;;
3050;SDS011;1535;51.098;6.414;2023-02-15T07:37:47;56.80;;;39.53;;
3050;SDS011;1535;51.098;6.414;2023-02-15T07:40:16;61.67;;;40.60;;
3050;SDS011;1535;51.098;6.414;2023-02-15T07:42:44;59.53;;;39.70;;
3050;SDS011;1535;51.098;6.414;2023-02-15T07:45:11;68.13;;;40.00;;
3050;SDS011;1535;51.098;6.414;2023-02-15T07:47:37;59.60;;;39.10;;
3050;SDS011;1535;51.098;6.414;2023-02-15T07:50:04;57.23;;;38.10;;
3050;SDS011;1535;51.098;6.414;2023-02-15T07:52:32;65.27;;;39.87;;
3050;SDS011;1535;51.098;6.414;2023-02-15T07:54:59;58.37;;;40.27;;
3050;SDS011;1535;51.098;6.414;2023-02-15T07:57:27;59.13;;;41.13;;
3050;SDS011;1535;51.098;6.414;2023-02-15T07:59:54;54.97;;;38.77;;
3050;SDS011;1535;51.098;6.414;2023-02-15T08:02:21;55.17;;;39.63;;
3050;SDS011;1535;51.098;6.414;2023-02-15T08:04:48;54.57;;;39.77;;
3050;SDS011;1535;51.098;6.414;2023-02-15T08:07:16;67.47;;;40.40;;
3050;SDS011;1535;51.098;6.414;2023-02-15T08:09:42;54.37;;;39.80;;
3050;SDS011;1535;51.098;6.414;2023-02-15T08:12:09;59.27;;;41.03;;
3050;SDS011;1535;51.098;6.414;2023-02-15T08:14:37;56.40;;;39.80;;
3050;SDS011;1535;51.098;6.414;2023-02-15T08:17:04;51.73;;;40.30;;
3050;SDS011;1535;51.098;6.414;2023-02-15T08:19:31;49.13;;;39.57;;
3050;SDS011;1535;51.098;6.414;2023-02-15T08:22:00;57.80;;;40.73;;
3050;SDS011;1535;51.098;6.414;2023-02-15T08:24:30;63.57;;;39.70;;
3050;SDS011;1535;51.098;6.414;2023-02-15T08:26:58;51.00;;;39.40;;
3050;SDS011;1535;51.098;6.414;2023-02-15T08:29:28;58.23;;;40.07;;
3050;SDS011;1535;51.098;6.414;2023-02-15T08:31:58;55.83;;;44.60;;
3050;SDS011;1535;51.098;6.414;2023-02-15T08:34:27;60.53;;;41.57;;
3050;SDS011;1535;51.098;6.414;2023-02-15T08:36:55;61.93;;;41.87;;
3050;SDS011;1535;51.098;6.414;2023-02-15T08:39:22;64.50;;;44.30;;
3050;SDS011;1535;51.098;6.414;2023-02-15T08:41:49;71.40;;;42.73;;
3050;SDS011;1535;51.098;6.414;2023-02-15T08:44:16;67.10;;;44.20;;
3050;SDS011;1535;51.098;6.414;2023-02-15T08:46:46;61.43;;;42.10;;
3050;SDS011;1535;51.098;6.414;2023-02-15T08:49:16;62.83;;;42.20;;
3050;SDS011;1535;51.098;6.414;2023-02-15T08:51:44;66.67;;;44.47;;
3050;SDS011;1535;51.098;6.414;2023-02-15T08:54:13;64.80;;;43.27;;
3050;SDS011;1535;51.098;6.414;2023-02-15T08:56:42;66.63;;;45.03;;
3050;SDS011;1535;51.098;6.414;2023-02-15T08:59:11;65.03;;;44.00;;
3050;SDS011;1535;51.098;6.414;2023-02-15T09:01:39;64.03;;;42.70;;
3050;SDS011;1535;51.098;6.414;2023-02-15T09:04:06;65.30;;;44.80;;
3050;SDS011;1535;51.098;6.414;2023-02-15T09:06:36;61.73;;;42.60;;
3050;SDS011;1535;51.098;6.414;2023-02-15T09:09:04;67.80;;;46.90;;
3050;SDS011;1535;51.098;6.414;2023-02-15T09:11:33;63.23;;;46.00;;
3050;SDS011;1535;51.098;6.414;2023-02-15T09:14:02;66.30;;;45.30;;
3050;SDS011;1535;51.098;6.414;2023-02-15T09:16:31;68.53;;;45.47;;
3050;SDS011;1535;51.098;6.414;2023-02-15T09:18:59;61.30;;;45.30;;
3050;SDS011;1535;51.098;6.414;2023-02-15T09:21:27;70.10;;;43.37;;
3050;SDS011;1535;51.098;6.414;2023-02-15T09:23:57;62.33;;;44.37;;
3050;SDS011;1535;51.098;6.414;2023-02-15T09:26:25;88.43;;;46.37;;
3050;SDS011;1535;51.098;6.414;2023-02-15T09:28:53;71.60;;;47.00;;
3050;SDS011;1535;51.098;6.414;2023-02-15T09:31:24;74.67;;;46.97;;
3050;SDS011;1535;51.098;6.414;2023-02-15T09:33:53;68.40;;;45.57;;
3050;SDS011;1535;51.098;6.414;2023-02-15T09:36:21;67.43;;;45.97;;
3050;SDS011;1535;51.098;6.414;2023-02-15T09:38:52;72.97;;;46.43;;
3050;SDS011;1535;51.098;6.414;2023-02-15T09:41:38;68.73;;;45.63;;
3050;SDS011;1535;51.098;6.414;2023-02-15T09:44:32;67.30;;;45.97;;
3050;SDS011;1535;51.098;6.414;2023-02-15T09:47:16;68.50;;;45.63;;
3050;SDS011;1535;51.098;6.414;2023-02-15T09:50:06;70.23;;;48.17;;
3050;SDS011;1535;51.098;6.414;2023-02-15T09:52:46;70.13;;;45.93;;
3050;SDS011;1535;51.098;6.414;2023-02-15T09:55:24;71.90;;;46.03;;
3050;SDS011;1535;51.098;6.414;2023-02-15T09:58:17;72.93;;;45.43;;
3050;SDS011;1535;51.098;6.414;2023-02-15T10:00:51;79.87;;;45.13;;
3050;SDS011;1535;51.098;6.414;2023-02-15T10:03:26;69.83;;;46.27;;
3050;SDS011;1535;51.098;6.414;2023-02-15T10:06:14;74.50;;;45.07;;
3050;SDS011;1535;51.098;6.414;2023-02-15T10:09:06;63.87;;;42.67;;
3050;SDS011;1535;51.098;6.414;2023-02-15T10:11:44;60.03;;;43.83;;
3050;SDS011;1535;51.098;6.414;2023-02-15T10:14:35;57.07;;;40.93;;
3050;SDS011;1535;51.098;6.414;2023-02-15T10:17:29;61.77;;;41.40;;
3050;SDS011;1535;51.098;6.414;2023-02-15T10:20:13;63.70;;;40.33;;
3050;SDS011;1535;51.098;6.414;2023-02-15T10:22:50;61.57;;;42.93;;
3050;SDS011;1535;51.098;6.414;2023-02-15T10:25:27;66.10;;;41.27;;
3050;SDS011;1535;51.098;6.414;2023-02-15T10:28:04;69.60;;;43.33;;
3050;SDS011;1535;51.098;6.414;2023-02-15T10:30:38;59.90;;;43.40;;
3050;SDS011;1535;51.098;6.414;2023-02-15T10:33:12;67.67;;;40.90;;
3050;SDS011;1535;51.098;6.414;2023-02-15T10:35:50;57.07;;;40.40;;
3050;SDS011;1535;51.098;6.414;2023-02-15T10:38:38;51.77;;;39.00;;
3050;SDS011;1535;51.098;6.414;2023-02-15T10:41:17;52.10;;;40.40;;
3050;SDS011;1535;51.098;6.414;2023-02-15T10:43:58;52.73;;;39.10;;
3050;SDS011;1535;51.098;6.414;2023-02-15T10:46:45;63.70;;;39.17;;
3050;SDS011;1535;51.098;6.414;2023-02-15T10:49:28;44.33;;;35.30;;
3050;SDS011;1535;51.098;6.414;2023-02-15T10:52:09;46.17;;;38.43;;
3050;SDS011;1535;51.098;6.414;2023-02-15T10:54:45;50.80;;;37.50;;
3050;SDS011;1535;51.098;6.414;2023-02-15T10:57:20;52.97;;;39.53;;
3050;SDS011;1535;51.098;6.414;2023-02-15T11:02:45;44.00;;;35.67;;
3050;SDS011;1535;51.098;6.414;2023-02-15T11:05:26;50.60;;;33.20;;
3050;SDS011;1535;51.098;6.414;2023-02-15T11:08:02;44.73;;;34.47;;
3050;SDS011;1535;51.098;6.414;2023-02-15T11:10:34;40.90;;;34.40;;
3050;SDS011;1535;51.098;6.414;2023-02-15T11:13:05;43.93;;;34.50;;
3050;SDS011;1535;51.098;6.414;2023-02-15T11:15:36;37.80;;;33.67;;
3050;SDS011;1535;51.098;6.414;2023-02-15T11:18:09;48.03;;;35.17;;
3050;SDS011;1535;51.098;6.414;2023-02-15T11:20:42;39.60;;;33.20;;
3050;SDS011;1535;51.098;6.414;2023-02-15T11:23:16;39.67;;;34.37;;
3050;SDS011;1535;51.098;6.414;2023-02-15T11:25:44;38.47;;;34.43;;
3050;SDS011;1535;51.098;6.414;2023-02-15T11:28:16;37.60;;;33.50;;
3050;SDS011;1535;51.098;6.414;2023-02-15T11:30:47;36.77;;;33.03;;
3050;SDS011;1535;51.098;6.414;2023-02-15T11:33:20;36.50;;;32.90;;
3050;SDS011;1535;51.098;6.414;2023-02-15T11:35:50;38.20;;;32.50;;
3050;SDS011;1535;51.098;6.414;2023-02-15T11:38:21;35.43;;;31.83;;
3050;SDS011;1535;51.098;6.414;2023-02-15T11:40:52;36.87;;;32.80;;
3050;SDS011;1535;51.098;6.414;2023-02-15T11:43:23;35.77;;;31.53;;
3050;SDS011;1535;51.098;6.414;2023-02-15T11:45:56;38.00;;;33.67;;
3050;SDS011;1535;51.098;6.414;2023-02-15T11:48:24;36.17;;;32.60;;
3050;SDS011;1535;51.098;6.414;2023-02-15T11:50:51;35.00;;;31.43;;
3050;SDS011;1535;51.098;6.414;2023-02-15T11:53:19;36.13;;;32.40;;
3050;SDS011;1535;51.098;6.414;2023-02-15T11:55:50;42.67;;;32.60;;
3050;SDS011;1535;51.098;6.414;2023-02-15T11:58:21;33.67;;;30.33;;
3050;SDS011;1535;51.098;6.414;2023-02-15T12:00:55;41.93;;;32.63;;
3050;SDS011;1535;51.098;6.414;2023-02-15T12:03:29;35.87;;;32.10;;
3050;SDS011;1535;51.098;6.414;2023-02-15T12:06:05;37.33;;;32.80;;
3050;SDS011;1535;51.098;6.414;2023-02-15T12:08:43;35.13;;;31.53;;
3050;SDS011;1535;51.098;6.414;2023-02-15T12:11:15;34.93;;;31.40;;
3050;SDS011;1535;51.098;6.414;2023-02-15T12:13:55;35.10;;;31.37;;
3050;SDS011;1535;51.098;6.414;2023-02-15T12:16:23;37.23;;;32.30;;
3050;SDS011;1535;51.098;6.414;2023-02-15T12:18:54;35.90;;;32.07;;
3050;SDS011;1535;51.098;6.414;2023-02-15T12:21:26;36.33;;;31.90;;
3050;SDS011;1535;51.098;6.414;2023-02-15T12:23:56;36.00;;;32.27;;
3050;SDS011;1535;51.098;6.414;2023-02-15T12:26:26;35.47;;;31.93;;
3050;SDS011;1535;51.098;6.414;2023-02-15T12:28:56;37.73;;;32.40;;
3050;SDS011;1535;51.098;6.414;2023-02-15T12:31:27;34.53;;;30.80;;
3050;SDS011;1535;51.098;6.414;2023-02-15T12:33:59;36.40;;;30.70;;
3050;SDS011;1535;51.098;6.414;2023-02-15T12:36:29;34.70;;;31.20;;
3050;SDS011;1535;51.098;6.414;2023-02-15T12:39:02;35.27;;;31.77;;
3050;SDS011;1535;51.098;6.414;2023-02-15T12:41:31;36.23;;;32.37;;
3050;SDS011;1535;51.098;6.414;2023-02-15T12:44:05;34.00;;;30.43;;
3050;SDS011;1535;51.098;6.414;2023-02-15T12:46:33;34.67;;;30.77;;
3050;SDS011;1535;51.098;6.414;2023-02-15T12:49:05;35.00;;;31.53;;
3050;SDS011;1535;51.098;6.414;2023-02-15T12:51:44;35.53;;;32.20;;
3050;SDS011;1535;51.098;6.414;2023-02-15T12:54:16;33.53;;;30.50;;
3050;SDS011;1535;51.098;6.414;2023-02-15T12:56:55;34.33;;;31.10;;
3050;SDS011;1535;51.098;6.414;2023-02-15T12:59:23;43.70;;;31.90;;
3050;SDS011;1535;51.098;6.414;2023-02-15T13:01:50;36.47;;;32.67;;
3050;SDS011;1535;51.098;6.414;2023-02-15T13:04:21;36.33;;;32.57;;
3050;SDS011;1535;51.098;6.414;2023-02-15T13:06:51;38.10;;;31.30;;
3050;SDS011;1535;51.098;6.414;2023-02-15T13:09:20;35.47;;;32.03;;
3050;SDS011;1535;51.098;6.414;2023-02-15T13:12:03;34.97;;;31.50;;
3050;SDS011;1535;51.098;6.414;2023-02-15T13:14:42;35.40;;;30.27;;
3050;SDS011;1535;51.098;6.414;2023-02-15T13:17:10;37.93;;;32.80;;
3050;SDS011;1535;51.098;6.414;2023-02-15T13:19:42;35.70;;;32.23;;
3050;SDS011;1535;51.098;6.414;2023-02-15T13:22:12;36.37;;;31.90;;
3050;SDS011;1535;51.098;6.414;2023-02-15T13:24:42;34.83;;;31.30;;
3050;SDS011;1535;51.098;6.414;2023-02-15T13:27:13;34.50;;;31.20;;
3050;SDS011;1535;51.098;6.414;2023-02-15T13:29:42;37.00;;;33.40;;
3050;SDS011;1535;51.098;6.414;2023-02-15T13:32:14;34.90;;;31.60;;
3050;SDS011;1535;51.098;6.414;2023-02-15T13:34:49;35.73;;;32.30;;
3050;SDS011;1535;51.098;6.414;2023-02-15T13:37:20;35.53;;;31.80;;
3050;SDS011;1535;51.098;6.414;2023-02-15T13:39:57;35.37;;;32.00;;
3050;SDS011;1535;51.098;6.414;2023-02-15T13:42:30;34.60;;;30.73;;
3050;SDS011;1535;51.098;6.414;2023-02-15T13:45:06;36.13;;;32.70;;
3050;SDS011;1535;51.098;6.414;2023-02-15T13:47:42;35.13;;;31.43;;
3050;SDS011;1535;51.098;6.414;2023-02-15T13:50:23;34.90;;;31.53;;
3050;SDS011;1535;51.098;6.414;2023-02-15T13:53:10;35.17;;;31.60;;
3050;SDS011;1535;51.098;6.414;2023-02-15T13:55:49;34.60;;;31.30;;
3050;SDS011;1535;51.098;6.414;2023-02-15T14:01:34;36.50;;;32.57;;
3050;SDS011;1535;51.098;6.414;2023-02-15T14:04:14;34.67;;;31.07;;
3050;SDS011;1535;51.098;6.414;2023-02-15T14:07:07;33.70;;;30.30;;
3050;SDS011;1535;51.098;6.414;2023-02-15T14:09:56;34.83;;;31.03;;
3050;SDS011;1535;51.098;6.414;2023-02-15T14:12:44;33.50;;;30.20;;
3050;SDS011;1535;51.098;6.414;2023-02-15T14:15:24;32.90;;;29.87;;
3050;SDS011;1535;51.098;6.414;2023-02-15T14:17:59;36.63;;;32.20;;
3050;SDS011;1535;51.098;6.414;2023-02-15T14:20:44;34.40;;;30.93;;
3050;SDS011;1535;51.098;6.414;2023-02-15T14:23:25;42.23;;;31.90;;
3050;SDS011;1535;51.098;6.414;2023-02-15T14:26:05;33.60;;;30.43;;
3050;SDS011;1535;51.098;6.414;2023-02-15T14:28:37;35.13;;;31.27;;
3050;SDS011;1535;51.098;6.414;2023-02-15T14:31:10;33.30;;;30.10;;
3050;SDS011;1535;51.098;6.414;2023-02-15T14:33:40;35.37;;;31.60;;
3050;SDS011;1535;51.098;6.414;2023-02-15T14:36:11;33.30;;;30.07;;
3050;SDS011;1535;51.098;6.414;2023-02-15T14:41:57;34.60;;;30.40;;
3050;SDS011;1535;51.098;6.414;2023-02-15T14:44:30;41.87;;;31.30;;
3050;SDS011;1535;51.098;6.414;2023-02-15T14:47:04;36.40;;;33.10;;
3050;SDS011;1535;51.098;6.414;2023-02-15T14:49:36;45.57;;;37.03;;
3050;SDS011;1535;51.098;6.414;2023-02-15T14:52:05;37.40;;;33.47;;
3050;SDS011;1535;51.098;6.414;2023-02-15T14:57:31;41.23;;;32.70;;
3050;SDS011;1535;51.098;6.414;2023-02-15T14:59:59;39.37;;;33.87;;
3050;SDS011;1535;51.098;6.414;2023-02-15T15:02:40;41.03;;;31.97;;
3050;SDS011;1535;51.098;6.414;2023-02-15T15:05:11;52.23;;;35.03;;
3050;SDS011;1535;51.098;6.414;2023-02-15T15:07:44;37.73;;;34.00;;
3050;SDS011;1535;51.098;6.414;2023-02-15T15:18:50;45.63;;;32.73;;
3050;SDS011;1535;51.098;6.414;2023-02-15T15:36:50;36.17;;;32.37;;
3050;SDS011;1535;51.098;6.414;2023-02-15T15:42:45;37.43;;;33.90;;
3050;SDS011;1535;51.098;6.414;2023-02-15T15:45:29;39.00;;;32.87;;
3050;SDS011;1535;51.098;6.414;2023-02-15T15:48:20;36.73;;;32.80;;
3050;SDS011;1535;51.098;6.414;2023-02-15T15:50:59;36.10;;;32.33;;
3050;SDS011;1535;51.098;6.414;2023-02-15T15:53:29;37.17;;;32.10;;
3050;SDS011;1535;51.098;6.414;2023-02-15T15:56:00;37.50;;;32.13;;
3050;SDS011;1535;51.098;6.414;2023-02-15T15:58:33;37.20;;;32.27;;
3050;SDS011;1535;51.098;6.414;2023-02-15T16:01:02;35.07;;;31.33;;